createdAt,value
2022-11-16T00:01:50.034Z,11.82
2022-11-16T00:04:35.621Z,11.93
2022-11-16T00:07:21.100Z,10.57
2022-11-16T00:10:07.087Z,11.23
2022-11-16T00:12:53.040Z,10.98
2022-11-16T00:15:38.123Z,10.20
2022-11-16T00:18:24.110Z,11.35
2022-11-16T00:21:09.187Z,11.45
2022-11-16T00:23:54.950Z,11.30
2022-11-16T00:26:40.197Z,11.50
2022-11-16T00:29:27.143Z,11.77
2022-11-16T00:32:12.635Z,12.13
2022-11-16T00:34:58.091Z,12.23
2022-11-16T00:37:43.544Z,12.07
2022-11-16T00:40:28.920Z,12.10
2022-11-16T00:43:14.188Z,10.90
2022-11-16T00:45:59.653Z,10.98
2022-11-16T00:48:45.013Z,11.65
2022-11-16T00:51:30.732Z,11.88
2022-11-16T00:54:16.928Z,13.95
2022-11-16T00:57:02.221Z,12.02
2022-11-16T00:59:48.174Z,12.88
2022-11-16T01:02:33.810Z,13.23
2022-11-16T01:05:19.158Z,11.90
2022-11-16T01:08:04.945Z,11.63
2022-11-16T01:10:50.729Z,13.25
2022-11-16T01:13:36.032Z,13.18
2022-11-16T01:16:23.098Z,12.70
2022-11-16T01:19:08.299Z,14.43
2022-11-16T01:21:53.656Z,13.93
2022-11-16T01:24:38.968Z,13.27
2022-11-16T01:27:24.416Z,13.65
2022-11-16T01:30:13.539Z,16.23
2022-11-16T01:33:03.720Z,14.07
2022-11-16T01:35:49.301Z,15.15
2022-11-16T01:38:35.528Z,14.20
2022-11-16T01:41:24.654Z,14.20
2022-11-16T01:44:31.653Z,14.02
2022-11-16T01:47:23.737Z,13.38
2022-11-16T01:50:14.148Z,15.07
2022-11-16T01:53:04.773Z,16.55
2022-11-16T01:56:04.387Z,14.82
2022-11-16T01:59:02.740Z,14.57
2022-11-16T02:01:48.423Z,15.75
2022-11-16T02:04:34.093Z,17.40
2022-11-16T02:08:00.469Z,15.98
2022-11-16T02:11:08.858Z,15.32
2022-11-16T02:14:03.399Z,14.10
2022-11-16T02:17:11.560Z,15.20
2022-11-16T02:20:07.725Z,15.95
2022-11-16T02:23:21.727Z,15.57
2022-11-16T02:29:26.864Z,13.47
2022-11-16T02:32:30.063Z,14.45
2022-11-16T02:35:25.493Z,12.48
2022-11-16T02:38:20.131Z,13.00
2022-11-16T02:41:17.456Z,12.73
2022-11-16T02:44:12.298Z,12.32
2022-11-16T02:47:03.015Z,11.30
2022-11-16T02:49:54.404Z,11.75
2022-11-16T02:52:39.735Z,11.88
2022-11-16T02:55:30.195Z,12.77
2022-11-16T02:58:20.563Z,11.95
2022-11-16T03:01:14.842Z,12.77
2022-11-16T03:04:10.009Z,11.70
2022-11-16T03:06:57.587Z,12.52
2022-11-16T03:09:44.938Z,12.73
2022-11-16T03:12:32.358Z,11.07
2022-11-16T03:15:18.387Z,11.77
2022-11-16T03:18:05.100Z,11.85
2022-11-16T03:20:53.859Z,13.55
2022-11-16T03:23:39.125Z,13.00
2022-11-16T03:26:31.940Z,11.65
2022-11-16T03:29:29.959Z,12.13
2022-11-16T03:32:30.174Z,13.00
2022-11-16T03:35:21.342Z,12.40
2022-11-16T03:38:09.016Z,12.68
2022-11-16T03:41:02.566Z,13.27
2022-11-16T03:43:50.075Z,11.50
2022-11-16T03:46:36.249Z,11.65
2022-11-16T03:49:23.536Z,11.27
2022-11-16T03:52:11.524Z,11.43
2022-11-16T03:54:56.675Z,11.50
2022-11-16T03:57:44.262Z,12.15
2022-11-16T04:00:29.884Z,11.90
2022-11-16T04:03:14.921Z,11.73
2022-11-16T04:06:19.251Z,10.68
2022-11-16T04:09:22.917Z,10.95
2022-11-16T04:12:27.450Z,11.32
2022-11-16T04:15:31.136Z,10.55
2022-11-16T04:18:36.290Z,11.20
2022-11-16T04:21:48.868Z,11.85
2022-11-16T04:24:38.106Z,11.80
2022-11-16T04:27:57.614Z,11.77
2022-11-16T04:31:07.438Z,11.98
2022-11-16T04:34:13.036Z,11.70
2022-11-16T04:37:22.430Z,12.57
2022-11-16T04:40:09.306Z,14.57
2022-11-16T04:43:00.117Z,13.48
2022-11-16T04:46:06.776Z,12.98
2022-11-16T04:48:57.783Z,14.70
2022-11-16T04:51:43.127Z,13.05
2022-11-16T04:54:28.649Z,14.30
2022-11-16T04:57:14.164Z,12.45
2022-11-16T04:59:59.550Z,13.52
2022-11-16T05:02:45.929Z,13.38
2022-11-16T05:05:31.219Z,13.13
2022-11-16T05:08:17.750Z,12.00
2022-11-16T05:11:04.827Z,11.55
2022-11-16T05:13:51.192Z,12.05
2022-11-16T05:16:37.958Z,12.63
2022-11-16T05:19:41.957Z,12.27
2022-11-16T05:22:27.500Z,13.07
2022-11-16T05:25:13.846Z,13.35
2022-11-16T05:27:59.345Z,11.77
2022-11-16T05:30:46.365Z,12.50
2022-11-16T05:33:35.810Z,12.13
2022-11-16T05:36:22.421Z,12.27
2022-11-16T05:39:09.060Z,11.02
2022-11-16T05:41:57.838Z,11.02
2022-11-16T05:44:43.289Z,11.85
2022-11-16T05:47:28.814Z,11.55
2022-11-16T05:50:14.850Z,11.88
2022-11-16T05:53:04.632Z,12.95
2022-11-16T05:55:50.013Z,10.93
2022-11-16T05:58:36.883Z,12.43
2022-11-16T06:01:23.936Z,11.48
2022-11-16T06:04:10.067Z,11.20
2022-11-16T06:06:55.237Z,11.07
2022-11-16T06:09:46.454Z,12.40
2022-11-16T06:12:37.227Z,11.70
2022-11-16T06:15:22.678Z,12.73
2022-11-16T06:18:08.768Z,12.65
2022-11-16T06:20:54.784Z,15.82
2022-11-16T06:23:40.966Z,12.57
2022-11-16T06:26:26.276Z,10.77
2022-11-16T06:29:11.816Z,10.65
2022-11-16T06:31:57.211Z,11.18
2022-11-16T06:34:42.476Z,13.20
2022-11-16T06:37:28.409Z,12.40
2022-11-16T06:40:14.400Z,10.82
2022-11-16T06:43:02.543Z,12.18
2022-11-16T06:45:55.931Z,9.85
2022-11-16T06:48:41.234Z,12.02
2022-11-16T06:51:30.582Z,13.73
2022-11-16T06:54:17.071Z,13.07
2022-11-16T06:57:02.464Z,13.40
2022-11-16T06:59:47.967Z,11.80
2022-11-16T07:02:33.504Z,12.27
2022-11-16T07:05:20.752Z,11.85
2022-11-16T07:08:06.020Z,10.38
2022-11-16T07:10:52.287Z,10.15
2022-11-16T07:13:38.453Z,11.13
2022-11-16T07:16:24.553Z,10.68
2022-11-16T07:19:14.679Z,13.07
2022-11-16T07:22:01.590Z,10.60
2022-11-16T07:24:46.930Z,9.13
2022-11-16T07:27:32.690Z,9.02
2022-11-16T07:30:18.815Z,9.45
2022-11-16T07:33:12.092Z,6.53
2022-11-16T07:36:16.689Z,7.53
2022-11-16T07:39:02.211Z,7.53
2022-11-16T07:41:50.312Z,9.07
2022-11-16T07:44:44.533Z,10.57
2022-11-16T07:47:34.732Z,7.03
2022-11-16T07:50:20.441Z,9.52
2022-11-16T07:53:06.418Z,6.88
2022-11-16T07:55:53.621Z,8.05
2022-11-16T07:58:40.093Z,6.85
2022-11-16T08:01:26.728Z,7.57
2022-11-16T08:04:12.081Z,5.72
2022-11-16T08:06:57.403Z,5.47
2022-11-16T08:09:43.371Z,6.03
2022-11-16T08:12:31.837Z,8.38
2022-11-16T08:15:17.288Z,5.90
2022-11-16T08:18:02.750Z,4.93
2022-11-16T08:20:48.104Z,4.55
2022-11-16T08:23:33.527Z,5.28
2022-11-16T08:26:20.408Z,4.90
2022-11-16T08:29:11.586Z,6.68
2022-11-16T08:31:59.579Z,7.82
2022-11-16T08:34:45.043Z,6.35
2022-11-16T08:37:32.116Z,6.00
2022-11-16T08:40:17.662Z,8.27
2022-11-16T08:43:03.283Z,5.72
2022-11-16T08:45:49.291Z,6.45
2022-11-16T08:48:36.295Z,7.32
2022-11-16T08:51:22.145Z,5.25
2022-11-16T08:54:14.285Z,5.63
2022-11-16T08:57:01.279Z,8.10
2022-11-16T08:59:49.172Z,9.30
2022-11-16T09:02:34.288Z,7.60
2022-11-16T09:05:19.911Z,6.10
2022-11-16T09:08:05.675Z,6.70
2022-11-16T09:10:51.160Z,10.07
2022-11-16T09:13:36.901Z,7.70
2022-11-16T09:16:23.144Z,7.28
2022-11-16T09:19:08.563Z,6.82
2022-11-16T09:21:54.035Z,9.40
2022-11-16T09:24:39.988Z,9.18
2022-11-16T09:27:25.305Z,7.72
2022-11-16T09:30:11.658Z,6.22
2022-11-16T09:33:01.181Z,6.90
2022-11-16T09:35:47.059Z,6.07
2022-11-16T09:38:54.249Z,5.15
2022-11-16T09:42:03.343Z,10.55
2022-11-16T09:45:15.282Z,6.45
2022-11-16T09:48:05.998Z,10.27
2022-11-16T09:51:01.823Z,6.13
2022-11-16T09:54:00.501Z,7.88
2022-11-16T09:56:48.942Z,5.55
2022-11-16T09:59:41.400Z,9.57
2022-11-16T10:05:22.326Z,7.10
2022-11-16T10:08:26.537Z,7.03
2022-11-16T10:11:17.555Z,8.38
2022-11-16T10:14:25.745Z,6.40
2022-11-16T10:17:33.294Z,9.15
2022-11-16T10:20:31.306Z,9.95
2022-11-16T10:23:35.765Z,11.70
2022-11-16T10:26:50.536Z,7.82
2022-11-16T10:29:38.530Z,6.07
2022-11-16T10:32:28.340Z,5.68
2022-11-16T10:35:29.519Z,6.05
2022-11-16T10:38:19.036Z,8.63
2022-11-16T10:41:21.272Z,9.00
2022-11-16T10:44:17.680Z,7.28
2022-11-16T10:47:09.786Z,7.47
2022-11-16T10:50:00.776Z,7.07
2022-11-16T10:52:46.153Z,11.70
2022-11-16T10:55:31.859Z,5.65
2022-11-16T10:58:17.075Z,6.20
2022-11-16T11:01:03.073Z,7.20
2022-11-16T11:03:50.154Z,7.32
2022-11-16T11:06:38.267Z,7.53
2022-11-16T11:09:30.271Z,8.88
2022-11-16T11:12:39.523Z,6.40
2022-11-16T11:15:27.118Z,6.25
2022-11-16T11:18:15.666Z,10.15
2022-11-16T11:21:19.412Z,6.97
2022-11-16T11:24:43.263Z,8.90
2022-11-16T11:27:27.985Z,6.10
2022-11-16T11:30:20.419Z,8.40
2022-11-16T11:33:13.241Z,7.90
2022-11-16T11:36:08.745Z,10.43
2022-11-16T11:39:06.989Z,6.35
2022-11-16T11:42:15.627Z,5.93
2022-11-16T11:45:13.109Z,6.93
2022-11-16T11:48:29.905Z,7.95
2022-11-16T11:51:25.286Z,9.73
2022-11-16T11:54:20.858Z,6.22
2022-11-16T11:57:12.334Z,6.65
2022-11-16T11:59:57.699Z,6.38
2022-11-16T12:03:35.404Z,7.47
2022-11-16T12:06:49.152Z,6.93
2022-11-16T12:10:16.141Z,6.53
2022-11-16T12:13:22.909Z,5.97
2022-11-16T12:16:35.217Z,8.15
2022-11-16T12:19:45.895Z,8.35
2022-11-16T12:23:03.912Z,5.32
2022-11-16T12:26:02.911Z,7.40
2022-11-16T12:29:03.888Z,6.40
2022-11-16T12:31:49.385Z,7.03
2022-11-16T12:34:41.785Z,8.48
2022-11-16T12:37:41.322Z,5.13
2022-11-16T12:40:42.226Z,9.20
2022-11-16T12:44:04.927Z,9.88
2022-11-16T12:47:06.667Z,8.88
2022-11-16T12:50:16.506Z,8.77
2022-11-16T12:53:33.261Z,7.10
2022-11-16T12:56:37.783Z,5.18
2022-11-16T12:59:36.284Z,7.50
2022-11-16T13:02:58.994Z,4.65
2022-11-16T13:05:56.552Z,7.55
2022-11-16T13:08:55.388Z,6.13
2022-11-16T13:11:45.466Z,9.10
2022-11-16T13:14:44.818Z,10.40
2022-11-16T13:17:37.872Z,8.98
2022-11-16T13:20:38.627Z,6.70
2022-11-16T13:24:01.162Z,9.27
2022-11-16T13:27:17.252Z,7.05
2022-11-16T13:30:23.231Z,6.30
2022-11-16T13:33:40.489Z,4.72
2022-11-16T13:36:46.377Z,5.65
2022-11-16T13:39:50.580Z,5.65
2022-11-16T13:42:57.663Z,5.63
2022-11-16T13:45:49.180Z,6.30
2022-11-16T13:48:38.524Z,4.55
2022-11-16T13:51:24.594Z,6.18
2022-11-16T13:57:32.121Z,5.13
2022-11-16T14:00:30.556Z,6.93
2022-11-16T14:03:15.700Z,9.25
2022-11-16T14:06:01.164Z,7.25
2022-11-16T14:08:49.270Z,5.75
2022-11-16T14:11:38.986Z,6.40
2022-11-16T14:15:03.769Z,6.30
2022-11-16T14:18:00.407Z,7.28
2022-11-16T14:20:56.441Z,8.68
2022-11-16T14:24:21.691Z,3.42
2022-11-16T14:27:30.283Z,5.15
2022-11-16T14:30:23.083Z,5.53
2022-11-16T14:33:14.750Z,6.38
2022-11-16T14:36:03.479Z,5.80
2022-11-16T14:38:49.173Z,5.35
2022-11-16T14:41:35.004Z,6.40
2022-11-16T14:44:24.552Z,5.65
2022-11-16T14:47:26.208Z,5.05
2022-11-16T14:50:22.551Z,4.05
2022-11-16T14:53:11.089Z,6.78
2022-11-16T14:56:07.631Z,5.75
2022-11-16T14:58:56.671Z,6.28
2022-11-16T15:01:42.613Z,6.35
2022-11-16T15:04:28.379Z,6.90
2022-11-16T15:07:15.308Z,4.72
2022-11-16T15:10:01.109Z,9.50
2022-11-16T15:12:51.462Z,5.32
2022-11-16T15:15:37.408Z,5.38
2022-11-16T15:18:23.146Z,5.07
2022-11-16T15:21:22.458Z,4.22
2022-11-16T15:24:29.514Z,5.40
2022-11-16T15:27:44.847Z,5.50
2022-11-16T15:30:34.057Z,5.55
2022-11-16T15:33:25.272Z,8.23
2022-11-16T15:36:25.361Z,3.47
2022-11-16T15:39:22.626Z,6.72
2022-11-16T15:42:14.337Z,4.53
2022-11-16T15:45:15.772Z,8.00
2022-11-16T15:48:03.363Z,6.47
2022-11-16T15:51:23.288Z,5.15
2022-11-16T15:54:22.284Z,7.45
2022-11-16T15:57:11.973Z,5.35
2022-11-16T15:59:58.004Z,7.22
2022-11-16T16:02:44.867Z,5.70
2022-11-16T16:05:38.475Z,3.63
2022-11-16T16:08:38.404Z,4.32
2022-11-16T16:11:26.814Z,6.25
2022-11-16T16:14:39.343Z,6.00
2022-11-16T16:17:26.856Z,5.70
2022-11-16T16:20:19.289Z,4.70
2022-11-16T16:23:15.118Z,6.03
2022-11-16T16:26:03.958Z,6.10
2022-11-16T16:28:49.450Z,4.28
2022-11-16T16:31:34.959Z,7.03
2022-11-16T16:34:20.475Z,6.85
2022-11-16T16:37:07.852Z,4.90
2022-11-16T16:39:53.510Z,6.43
2022-11-16T16:42:39.239Z,4.35
2022-11-16T16:45:37.042Z,8.68
2022-11-16T16:48:22.488Z,8.55
2022-11-16T16:51:11.486Z,6.82
2022-11-16T16:53:57.353Z,7.35
2022-11-16T16:56:42.403Z,5.22
2022-11-16T16:59:29.996Z,6.60
2022-11-16T17:02:16.488Z,9.57
2022-11-16T17:05:01.852Z,5.63
2022-11-16T17:07:47.271Z,8.20
2022-11-16T17:10:32.646Z,7.25
2022-11-16T17:13:18.056Z,7.82
2022-11-16T17:16:07.528Z,6.78
2022-11-16T17:18:56.169Z,7.22
2022-11-16T17:21:41.595Z,6.68
2022-11-16T17:24:26.811Z,6.93
2022-11-16T17:27:12.526Z,8.10
2022-11-16T17:29:58.143Z,6.90
2022-11-16T17:32:43.669Z,7.25
2022-11-16T17:35:29.219Z,7.32
2022-11-16T17:38:14.825Z,10.15
2022-11-16T17:41:05.915Z,10.00
2022-11-16T17:43:53.069Z,8.60
2022-11-16T17:46:38.196Z,8.70
2022-11-16T17:49:23.947Z,12.32
2022-11-16T17:52:09.449Z,10.02
2022-11-16T17:54:54.917Z,7.53
2022-11-16T17:57:40.589Z,11.35
2022-11-16T18:00:26.164Z,10.50
2022-11-16T18:03:11.555Z,7.25
2022-11-16T18:06:08.796Z,9.18
2022-11-16T18:08:54.253Z,9.35
2022-11-16T18:11:39.775Z,8.80
2022-11-16T18:14:26.287Z,11.52
2022-11-16T18:17:11.974Z,10.82
2022-11-16T18:19:57.219Z,11.27
2022-11-16T18:22:42.704Z,12.00
2022-11-16T18:25:28.157Z,11.18
2022-11-16T18:28:13.603Z,10.38
2022-11-16T18:31:12.064Z,8.60
2022-11-16T18:33:57.506Z,9.02
2022-11-16T18:36:43.139Z,12.55
2022-11-16T18:39:28.457Z,10.10
2022-11-16T18:42:14.010Z,7.75
2022-11-16T18:44:59.516Z,10.63
2022-11-16T18:47:45.099Z,10.45
2022-11-16T18:50:30.700Z,9.13
2022-11-16T18:53:16.055Z,8.85
2022-11-16T18:56:02.041Z,8.02
2022-11-16T18:58:52.277Z,8.60
2022-11-16T19:01:38.644Z,6.00
2022-11-16T19:04:23.899Z,7.20
2022-11-16T19:07:09.443Z,8.93
2022-11-16T19:09:54.817Z,7.18
2022-11-16T19:12:40.350Z,8.57
2022-11-16T19:15:26.301Z,8.15
2022-11-16T19:18:20.986Z,4.97
2022-11-16T19:21:13.168Z,8.52
2022-11-16T19:23:58.482Z,9.15
2022-11-16T19:26:43.883Z,7.57
2022-11-16T19:29:29.408Z,6.10
2022-11-16T19:32:15.224Z,7.13
2022-11-16T19:35:00.491Z,10.45
2022-11-16T19:37:45.847Z,8.65
2022-11-16T19:40:31.352Z,6.65
2022-11-16T19:43:16.752Z,7.90
2022-11-16T19:46:07.939Z,9.93
2022-11-16T19:48:54.647Z,9.90
2022-11-16T19:51:39.908Z,9.82
2022-11-16T19:54:25.784Z,8.43
2022-11-16T19:57:11.853Z,6.30
2022-11-16T19:59:57.128Z,9.48
2022-11-16T20:02:42.646Z,6.95
2022-11-16T20:05:29.915Z,6.40
2022-11-16T20:08:15.149Z,10.32
2022-11-16T20:11:00.755Z,10.88
2022-11-16T20:13:50.368Z,7.55
2022-11-16T20:16:39.345Z,7.93
2022-11-16T20:19:24.769Z,13.52
2022-11-16T20:22:10.840Z,6.63
2022-11-16T20:24:56.242Z,9.10
2022-11-16T20:27:41.819Z,9.95
2022-11-16T20:30:27.170Z,9.32
2022-11-16T20:33:14.736Z,7.93
2022-11-16T20:36:06.220Z,9.45
2022-11-16T20:38:51.975Z,9.45
2022-11-16T20:41:37.629Z,8.18
2022-11-16T20:44:23.276Z,8.93
2022-11-16T20:47:08.791Z,9.10
2022-11-16T20:49:54.196Z,5.65
2022-11-16T20:52:43.141Z,9.60
2022-11-16T20:55:30.378Z,8.40
2022-11-16T20:58:21.414Z,8.50
2022-11-16T21:01:12.653Z,7.13
2022-11-16T21:04:04.008Z,5.13
2022-11-16T21:06:49.242Z,7.05
2022-11-16T21:09:54.792Z,6.35
2022-11-16T21:12:59.027Z,8.18
2022-11-16T21:15:44.531Z,6.13
2022-11-16T21:18:30.966Z,9.57
2022-11-16T21:21:16.798Z,7.03
2022-11-16T21:24:02.389Z,4.50
2022-11-16T21:26:48.006Z,5.90
2022-11-16T21:29:33.672Z,7.57
2022-11-16T21:32:19.276Z,6.45
2022-11-16T21:35:05.116Z,6.57
2022-11-16T21:37:50.327Z,7.85
2022-11-16T21:40:35.933Z,7.63
2022-11-16T21:43:21.490Z,8.45
2022-11-16T21:46:12.293Z,8.30
2022-11-16T21:48:58.073Z,5.78
2022-11-16T21:51:43.580Z,15.23
2022-11-16T21:54:47.434Z,8.32
2022-11-16T21:57:32.976Z,9.15
2022-11-16T22:00:19.464Z,7.60
2022-11-16T22:03:04.796Z,7.40
2022-11-16T22:06:13.871Z,11.73
2022-11-16T22:08:59.953Z,8.75
2022-11-16T22:11:45.337Z,9.23
2022-11-16T22:14:30.640Z,6.93
2022-11-16T22:17:16.384Z,9.18
2022-11-16T22:20:01.722Z,8.85
2022-11-16T22:22:47.434Z,8.35
2022-11-16T22:25:32.999Z,6.65
2022-11-16T22:28:20.947Z,8.73
2022-11-16T22:31:12.423Z,7.70
2022-11-16T22:33:58.180Z,7.45
2022-11-16T22:36:43.951Z,7.63
2022-11-16T22:39:29.284Z,6.03
2022-11-16T22:42:14.810Z,10.68
2022-11-16T22:45:00.429Z,8.13
2022-11-16T22:47:48.570Z,9.48
2022-11-16T22:50:35.216Z,7.93
2022-11-16T22:53:20.751Z,8.48
2022-11-16T22:56:08.091Z,8.05
2022-11-16T22:58:53.691Z,11.15
2022-11-16T23:01:39.170Z,8.15
2022-11-16T23:04:24.880Z,6.88
2022-11-16T23:07:10.329Z,4.97
2022-11-16T23:09:55.779Z,7.40
2022-11-16T23:12:59.803Z,7.18
2022-11-16T23:15:50.929Z,8.55
2022-11-16T23:18:36.175Z,7.53
2022-11-16T23:21:40.556Z,9.40
2022-11-16T23:24:44.490Z,6.88
2022-11-16T23:27:51.303Z,8.48
2022-11-16T23:30:36.831Z,8.68
2022-11-16T23:33:42.122Z,8.30
2022-11-16T23:36:27.266Z,8.48
2022-11-16T23:39:12.784Z,9.88
2022-11-16T23:42:17.323Z,7.82
2022-11-16T23:45:03.338Z,12.32
2022-11-16T23:47:48.593Z,10.55
2022-11-16T23:50:34.687Z,11.13
2022-11-16T23:53:20.438Z,10.77
2022-11-16T23:56:06.451Z,14.77
2022-11-16T23:58:56.519Z,10.23
